Time;durP1;ratioP1;P1;durP2;ratioP2;P2;SDS_P1;SDS_P2;PMS_P1;PMS_P2;Temp;Humidity;BMP_temperature;BMP_pressure;BME280_temperature;BME280_humidity;BME280_pressure;Samples;Min_cycle;Max_cycle;Signal;HPM_P1;HPM_P2
2022/06/01 00:02:11;;;;;;;12.73;10.70;;;;;;;;;;5073118;28;20407;-77
2022/06/01 00:04:37;;;;;;;11.98;10.70;;;;;;;;;;5072796;28;20452;-76
2022/06/01 00:07:03;;;;;;;13.43;11.83;;;;;;;;;;5073248;28;20242;-77
2022/06/01 00:09:29;;;;;;;11.93;10.68;;;;;;;;;;5073105;28;20426;-78
2022/06/01 00:11:55;;;;;;;11.43;9.57;;;;;;;;;;5071501;28;20189;-79
2022/06/01 00:14:21;;;;;;;10.80;9.68;;;;;;;;;;5071175;28;20431;-76
2022/06/01 00:16:47;;;;;;;12.65;10.15;;;;;;;;;;5073024;28;20268;-77
2022/06/01 00:19:13;;;;;;;10.63;9.05;;;;;;;;;;5072906;28;20197;-77
2022/06/01 00:24:24;;;;;;;9.95;9.05;;;;;;;;;;5072801;28;20793;-78
2022/06/01 00:26:50;;;;;;;12.25;10.95;;;;;;;;;;5073160;28;20173;-77
2022/06/01 00:29:17;;;;;;;10.85;9.35;;;;;;;;;;5073108;28;20184;-77
2022/06/01 00:31:43;;;;;;;11.95;9.07;;;;;;;;;;5072993;28;20189;-77
2022/06/01 00:34:09;;;;;;;10.52;9.50;;;;;;;;;;5071048;28;20197;-76
2022/06/01 00:36:35;;;;;;;9.90;8.33;;;;;;;;;;5072780;28;20185;-76
2022/06/01 00:39:01;;;;;;;11.80;8.77;;;;;;;;;;5072818;28;20560;-76
2022/06/01 00:41:29;;;;;;;11.10;8.90;;;;;;;;;;5071591;28;20231;-76
2022/06/01 00:43:55;;;;;;;9.60;8.60;;;;;;;;;;5072304;28;20411;-75
2022/06/01 00:46:21;;;;;;;8.80;8.00;;;;;;;;;;5072535;28;20252;-77
2022/06/01 00:48:49;;;;;;;9.17;8.10;;;;;;;;;;5072699;28;20208;-77
2022/06/01 00:51:17;;;;;;;9.50;8.50;;;;;;;;;;5072862;28;20415;-76
2022/06/01 00:53:44;;;;;;;10.50;7.80;;;;;;;;;;5072311;28;20250;-76
2022/06/01 00:56:12;;;;;;;7.72;6.97;;;;;;;;;;5071326;28;20185;-75
2022/06/01 00:58:39;;;;;;;10.80;8.30;;;;;;;;;;5072504;28;20249;-77
2022/06/01 01:01:08;;;;;;;8.75;7.95;;;;;;;;;;5072603;28;20165;-76
2022/06/01 01:03:35;;;;;;;7.72;7.03;;;;;;;;;;5072009;28;20227;-78
2022/06/01 01:06:10;;;;;;;7.70;6.88;;;;;;;;;;5072392;28;20193;-75
2022/06/01 01:08:36;;;;;;;8.15;6.15;;;;;;;;;;5072387;28;20177;-78
2022/06/01 01:11:02;;;;;;;7.45;5.70;;;;;;;;;;5072292;28;20234;-77
2022/06/01 01:13:28;;;;;;;6.87;6.20;;;;;;;;;;5071946;28;20189;-77
2022/06/01 01:15:58;;;;;;;7.18;6.40;;;;;;;;;;5072166;28;20431;-77
2022/06/01 01:18:30;;;;;;;7.28;6.57;;;;;;;;;;5072208;28;20193;-75
2022/06/01 01:21:01;;;;;;;7.00;6.30;;;;;;;;;;5072094;28;20205;-76
2022/06/01 01:23:34;;;;;;;7.07;6.38;;;;;;;;;;5072089;28;20252;-75
2022/06/01 01:26:00;;;;;;;6.55;5.70;;;;;;;;;;5076158;28;20196;-75
2022/06/01 01:28:26;;;;;;;11.93;6.40;;;;;;;;;;5075770;28;20575;-77
2022/06/01 01:31:05;;;;;;;8.05;5.93;;;;;;;;;;5075791;28;20482;-74
2022/06/01 01:33:31;;;;;;;6.10;5.60;;;;;;;;;;5075853;28;20173;-76
2022/06/01 01:36:02;;;;;;;6.63;5.93;;;;;;;;;;5076013;28;20558;-75
2022/06/01 01:38:47;;;;;;;10.07;5.55;;;;;;;;;;5075941;28;20213;-76
2022/06/01 01:41:15;;;;;;;7.40;5.00;;;;;;;;;;5076009;28;20184;-77
2022/06/01 01:43:55;;;;;;;8.10;6.07;;;;;;;;;;5075828;28;20170;-77
2022/06/01 01:46:21;;;;;;;6.10;5.07;;;;;;;;;;5076077;28;20578;-77
2022/06/01 01:48:47;;;;;;;6.65;5.45;;;;;;;;;;5074540;28;20177;-75
2022/06/01 01:51:13;;;;;;;5.73;5.13;;;;;;;;;;5075843;28;20588;-78
2022/06/01 01:53:39;;;;;;;8.32;5.18;;;;;;;;;;5075444;28;20403;-77
2022/06/01 01:56:08;;;;;;;5.63;4.82;;;;;;;;;;5075631;28;20216;-77
2022/06/01 01:58:55;;;;;;;7.18;5.47;;;;;;;;;;5075459;28;20201;-78
2022/06/01 02:01:31;;;;;;;5.65;5.07;;;;;;;;;;5075327;28;20203;-77
2022/06/01 02:04:04;;;;;;;7.78;5.45;;;;;;;;;;5075212;28;20220;-76
2022/06/01 02:06:43;;;;;;;11.02;4.50;;;;;;;;;;5075545;28;20182;-77
2022/06/01 02:09:11;;;;;;;6.47;4.50;;;;;;;;;;5075388;28;20181;-77
2022/06/01 02:14:39;;;;;;;5.65;5.13;;;;;;;;;;5074986;28;20342;-76
2022/06/01 02:17:06;;;;;;;5.55;4.78;;;;;;;;;;5075077;28;20209;-77
2022/06/01 02:19:43;;;;;;;5.25;4.75;;;;;;;;;;5075157;28;20675;-77
2022/06/01 02:22:10;;;;;;;6.70;4.75;;;;;;;;;;5075174;28;20177;-76
2022/06/01 02:24:37;;;;;;;8.80;5.55;;;;;;;;;;5074809;28;20304;-77
2022/06/01 02:27:03;;;;;;;6.13;5.10;;;;;;;;;;5075135;28;20192;-76
2022/06/01 02:29:35;;;;;;;5.43;4.88;;;;;;;;;;5075062;28;20187;-78
2022/06/01 02:32:03;;;;;;;5.95;5.15;;;;;;;;;;5075261;28;20196;-76
2022/06/01 02:34:29;;;;;;;6.10;4.60;;;;;;;;;;5074767;28;20666;-76
2022/06/01 02:36:56;;;;;;;6.97;4.90;;;;;;;;;;5074568;28;20208;-77
2022/06/01 02:39:24;;;;;;;10.88;4.90;;;;;;;;;;5074654;28;20208;-75
2022/06/01 02:44:34;;;;;;;12.50;6.03;;;;;;;;;;5074773;28;20204;-77
2022/06/01 02:47:00;;;;;;;5.20;4.70;;;;;;;;;;5074759;28;20629;-78
2022/06/01 02:49:26;;;;;;;5.90;4.93;;;;;;;;;;5074653;28;20862;-76
2022/06/01 02:51:52;;;;;;;6.03;4.63;;;;;;;;;;5074653;28;20453;-75
2022/06/01 02:54:18;;;;;;;5.95;5.28;;;;;;;;;;5074206;28;20828;-76
2022/06/01 02:56:46;;;;;;;6.38;5.70;;;;;;;;;;5074659;28;20170;-75
2022/06/01 02:59:12;;;;;;;5.85;5.35;;;;;;;;;;5073119;28;20685;-77
2022/06/01 03:01:38;;;;;;;5.97;5.30;;;;;;;;;;5074560;28;20180;-77
2022/06/01 03:04:06;;;;;;;7.30;5.40;;;;;;;;;;5074127;28;20201;-77
2022/06/01 03:06:31;;;;;;;5.55;5.05;;;;;;;;;;5074406;28;20411;-75
2022/06/01 03:08:58;;;;;;;6.10;5.50;;;;;;;;;;5074229;28;20188;-76
2022/06/01 03:11:24;;;;;;;5.75;4.50;;;;;;;;;;5074208;28;20823;-75
2022/06/01 03:13:50;;;;;;;5.97;5.40;;;;;;;;;;5073817;28;20184;-78
2022/06/01 03:16:16;;;;;;;6.10;5.50;;;;;;;;;;5074051;28;20761;-77
2022/06/01 03:18:42;;;;;;;5.20;4.80;;;;;;;;;;5073977;28;20463;-75
2022/06/01 03:21:08;;;;;;;5.43;4.93;;;;;;;;;;5073952;28;20652;-76
2022/06/01 03:23:34;;;;;;;12.97;5.17;;;;;;;;;;5073594;28;20505;-75
2022/06/01 03:26:00;;;;;;;7.40;4.90;;;;;;;;;;5072795;28;20422;-76
2022/06/01 03:28:26;;;;;;;8.40;6.30;;;;;;;;;;5073987;28;20189;-76
2022/06/01 03:30:52;;;;;;;9.90;5.53;;;;;;;;;;5073750;28;20419;-75
2022/06/01 03:33:18;;;;;;;5.85;5.32;;;;;;;;;;5073457;28;20453;-77
2022/06/01 03:35:44;;;;;;;7.05;5.40;;;;;;;;;;5073725;28;20280;-77
2022/06/01 03:38:10;;;;;;;6.80;6.10;;;;;;;;;;5073653;28;20283;-76
2022/06/01 03:40:37;;;;;;;6.30;5.70;;;;;;;;;;5072511;28;20407;-77
2022/06/01 03:43:03;;;;;;;8.02;5.63;;;;;;;;;;5073460;28;20208;-76
2022/06/01 03:48:14;;;;;;;7.88;6.78;;;;;;;;;;5073223;28;20435;-76
2022/06/01 03:50:41;;;;;;;7.65;6.85;;;;;;;;;;5072527;28;20189;-78
2022/06/01 03:53:07;;;;;;;6.47;5.85;;;;;;;;;;5073259;28;20578;-77
2022/06/01 03:55:34;;;;;;;8.10;5.65;;;;;;;;;;5073405;28;20193;-76
2022/06/01 03:58:01;;;;;;;6.65;5.75;;;;;;;;;;5073313;28;20287;-75
2022/06/01 04:00:27;;;;;;;8.93;6.45;;;;;;;;;;5073463;28;20174;-76
2022/06/01 04:02:53;;;;;;;8.90;6.50;;;;;;;;;;5072990;28;20641;-75
2022/06/01 04:05:20;;;;;;;6.50;5.90;;;;;;;;;;5073085;28;20193;-76
2022/06/01 04:07:46;;;;;;;7.65;6.40;;;;;;;;;;5072929;28;20177;-77
2022/06/01 04:10:13;;;;;;;6.70;6.00;;;;;;;;;;5071758;28;20184;-77
2022/06/01 04:12:39;;;;;;;7.07;5.82;;;;;;;;;;5073212;28;20415;-77
2022/06/01 04:15:06;;;;;;;6.22;5.45;;;;;;;;;;5072712;28;20561;-77
2022/06/01 04:17:32;;;;;;;6.75;5.80;;;;;;;;;;5072810;28;20173;-77
2022/06/01 04:19:58;;;;;;;6.80;5.70;;;;;;;;;;5072737;28;20579;-75
2022/06/01 04:22:24;;;;;;;7.37;6.10;;;;;;;;;;5072895;28;20412;-75
2022/06/01 04:24:50;;;;;;;6.28;5.68;;;;;;;;;;5072488;28;20446;-76
2022/06/01 04:27:16;;;;;;;5.87;5.30;;;;;;;;;;5071474;28;20538;-77
2022/06/01 04:29:42;;;;;;;8.80;6.30;;;;;;;;;;5072677;28;20415;-75
2022/06/01 04:32:09;;;;;;;11.50;6.47;;;;;;;;;;5072432;28;20413;-77
2022/06/01 04:34:35;;;;;;;8.07;5.90;;;;;;;;;;5072411;28;20441;-78
2022/06/01 04:37:01;;;;;;;6.43;5.80;;;;;;;;;;5073041;28;20470;-76
2022/06/01 04:39:27;;;;;;;6.97;6.30;;;;;;;;;;5072894;28;20717;-77
2022/06/01 04:41:53;;;;;;;12.57;5.70;;;;;;;;;;5072818;28;20208;-79
2022/06/01 04:44:20;;;;;;;6.82;6.10;;;;;;;;;;5072277;28;20434;-77
2022/06/01 04:46:46;;;;;;;10.90;6.95;;;;;;;;;;5072611;28;20179;-77
2022/06/01 04:49:12;;;;;;;7.30;6.60;;;;;;;;;;5072632;28;20532;-77
2022/06/01 04:51:38;;;;;;;8.52;7.20;;;;;;;;;;5071402;28;20182;-78
2022/06/01 04:54:06;;;;;;;9.90;7.15;;;;;;;;;;5072201;28;20709;-78
2022/06/01 04:56:32;;;;;;;9.93;7.60;;;;;;;;;;5071175;28;20174;-79
2022/06/01 04:58:58;;;;;;;7.85;7.15;;;;;;;;;;5073716;28;20259;-77
2022/06/01 05:01:24;;;;;;;8.90;6.77;;;;;;;;;;5076851;28;20172;-79
2022/06/01 05:03:50;;;;;;;10.13;7.90;;;;;;;;;;5075062;28;20408;-78
2022/06/01 05:06:16;;;;;;;8.65;7.80;;;;;;;;;;5076408;28;20785;-76
2022/06/01 05:08:42;;;;;;;9.10;8.20;;;;;;;;;;5076605;28;20173;-76
2022/06/01 05:11:08;;;;;;;9.50;8.50;;;;;;;;;;5075239;28;20447;-77
2022/06/01 05:13:34;;;;;;;11.70;8.43;;;;;;;;;;5076046;28;20236;-80
2022/06/01 05:16:01;;;;;;;13.20;8.60;;;;;;;;;;5076332;28;20454;-78
2022/06/01 05:18:27;;;;;;;9.18;8.07;;;;;;;;;;5076187;28;20199;-78
2022/06/01 05:20:54;;;;;;;16.38;8.07;;;;;;;;;;5074922;28;20173;-78
2022/06/01 05:23:21;;;;;;;13.35;8.00;;;;;;;;;;5075795;28;20166;-78
2022/06/01 05:25:48;;;;;;;13.27;7.63;;;;;;;;;;5076127;28;20193;-77
2022/06/01 05:28:17;;;;;;;12.00;7.85;;;;;;;;;;5075882;28;20177;-78
2022/06/01 05:30:43;;;;;;;9.27;8.00;;;;;;;;;;5075775;28;20181;-78
2022/06/01 05:33:09;;;;;;;11.40;8.40;;;;;;;;;;5074323;28;20181;-79
2022/06/01 05:35:35;;;;;;;12.25;7.85;;;;;;;;;;5075750;28;20560;-78
2022/06/01 05:38:01;;;;;;;8.30;7.53;;;;;;;;;;5074454;28;20200;-78
2022/06/01 05:40:30;;;;;;;10.67;7.50;;;;;;;;;;5074221;28;20192;-78
2022/06/01 05:42:56;;;;;;;10.20;8.02;;;;;;;;;;5075333;28;20416;-78
2022/06/01 05:45:22;;;;;;;9.63;8.65;;;;;;;;;;5075560;28;20556;-80
2022/06/01 05:47:48;;;;;;;10.80;9.70;;;;;;;;;;5074491;28;20177;-77
2022/06/01 05:50:14;;;;;;;15.30;9.30;;;;;;;;;;5075782;28;20877;-77
2022/06/01 05:52:40;;;;;;;9.50;8.17;;;;;;;;;;5074132;28;20446;-81
2022/06/01 05:55:10;;;;;;;10.15;7.82;;;;;;;;;;5074010;28;20461;-76
2022/06/01 05:57:36;;;;;;;16.13;10.05;;;;;;;;;;5075556;28;20173;-79
2022/06/01 06:00:08;;;;;;;21.10;9.47;;;;;;;;;;5074339;28;20238;-78
2022/06/01 06:02:34;;;;;;;13.40;9.57;;;;;;;;;;5074177;28;20525;-79
2022/06/01 06:05:00;;;;;;;18.87;8.80;;;;;;;;;;5075079;28;20222;-78
2022/06/01 06:07:26;;;;;;;14.30;9.90;;;;;;;;;;5075504;28;20962;-79
2022/06/01 06:09:52;;;;;;;16.97;8.77;;;;;;;;;;5074991;28;20416;-77
2022/06/01 06:12:18;;;;;;;12.17;8.70;;;;;;;;;;5074727;28;20423;-79
2022/06/01 06:14:44;;;;;;;13.95;9.13;;;;;;;;;;5073540;28;20432;-77
2022/06/01 06:17:10;;;;;;;13.43;7.85;;;;;;;;;;5075398;28;20586;-80
2022/06/01 06:19:38;;;;;;;8.97;7.50;;;;;;;;;;5075244;28;20295;-76
2022/06/01 06:22:06;;;;;;;11.00;8.63;;;;;;;;;;5075126;28;20811;-77
2022/06/01 06:24:32;;;;;;;9.52;7.30;;;;;;;;;;5074748;28;20215;-77
2022/06/01 06:26:58;;;;;;;10.02;6.93;;;;;;;;;;5074805;28;20185;-76
2022/06/01 06:29:24;;;;;;;11.73;7.90;;;;;;;;;;5074943;28;20174;-78
2022/06/01 06:31:50;;;;;;;12.97;7.60;;;;;;;;;;5075038;28;20435;-78
2022/06/01 06:34:16;;;;;;;8.60;6.47;;;;;;;;;;5074627;28;20502;-76
2022/06/01 06:36:44;;;;;;;9.18;7.13;;;;;;;;;;5075145;28;20767;-76
2022/06/01 06:39:10;;;;;;;14.10;6.90;;;;;;;;;;5074774;28;20209;-77
2022/06/01 06:41:36;;;;;;;10.18;6.18;;;;;;;;;;5074920;28;20174;-77
2022/06/01 06:44:02;;;;;;;8.20;6.47;;;;;;;;;;5074578;28;20184;-75
2022/06/01 06:46:28;;;;;;;7.95;6.20;;;;;;;;;;5074964;28;20404;-75
2022/06/01 06:48:54;;;;;;;9.97;6.13;;;;;;;;;;5074808;28;20540;-77
2022/06/01 06:51:21;;;;;;;9.93;4.90;;;;;;;;;;5074700;28;20415;-76
2022/06/01 06:53:47;;;;;;;10.43;5.07;;;;;;;;;;5074441;28;20256;-76
2022/06/01 06:56:13;;;;;;;12.37;4.70;;;;;;;;;;5075310;28;20833;-77
2022/06/01 06:58:40;;;;;;;6.70;5.10;;;;;;;;;;5084806;28;20487;-77
2022/06/01 07:01:07;;;;;;;4.93;4.43;;;;;;;;;;5079700;28;20426;-78
2022/06/01 07:03:33;;;;;;;6.17;4.67;;;;;;;;;;5094261;28;20434;-75
2022/06/01 07:06:17;;;;;;;5.23;4.17;;;;;;;;;;5094622;28;20453;-75
2022/06/01 07:08:52;;;;;;;7.37;3.80;;;;;;;;;;5094726;28;20911;-77
2022/06/01 07:11:19;;;;;;;9.07;4.30;;;;;;;;;;5094249;28;20410;-76
2022/06/01 07:13:44;;;;;;;6.00;3.97;;;;;;;;;;5094194;28;20403;-77
2022/06/01 07:16:12;;;;;;;6.47;4.00;;;;;;;;;;5094339;28;20437;-75
2022/06/01 07:18:39;;;;;;;8.67;4.10;;;;;;;;;;5094291;28;20450;-76
2022/06/01 07:21:05;;;;;;;8.87;3.90;;;;;;;;;;5094091;28;20411;-77
2022/06/01 07:23:31;;;;;;;7.10;3.77;;;;;;;;;;5093684;28;20402;-77
2022/06/01 07:25:57;;;;;;;14.73;5.33;;;;;;;;;;5094131;28;20393;-76
2022/06/01 07:28:24;;;;;;;5.03;2.50;;;;;;;;;;5094115;28;20782;-78
2022/06/01 07:30:50;;;;;;;11.70;4.20;;;;;;;;;;5094043;28;20476;-75
2022/06/01 07:33:19;;;;;;;5.17;2.87;;;;;;;;;;5093620;28;20402;-77
2022/06/01 07:35:45;;;;;;;9.33;3.93;;;;;;;;;;5092576;28;20413;-75
2022/06/01 07:43:40;;;;;;;6.77;3.37;;;;;;;;;;5093873;28;20402;-79
2022/06/01 07:46:08;;;;;;;6.17;3.77;;;;;;;;;;5092297;28;20787;-77
2022/06/01 07:48:34;;;;;;;5.10;2.70;;;;;;;;;;5093802;28;20463;-76
2022/06/01 07:51:00;;;;;;;6.20;2.87;;;;;;;;;;5093876;28;20428;-78
2022/06/01 07:53:26;;;;;;;8.47;3.43;;;;;;;;;;5093087;28;20391;-76
2022/06/01 07:55:52;;;;;;;5.20;2.70;;;;;;;;;;5093563;28;20416;-76
2022/06/01 07:58:18;;;;;;;6.93;2.37;;;;;;;;;;5093251;28;20492;-76
2022/06/01 08:00:44;;;;;;;8.57;3.20;;;;;;;;;;5093672;28;20382;-78
2022/06/01 08:03:11;;;;;;;5.20;2.33;;;;;;;;;;5093003;28;20456;-77
2022/06/01 08:05:38;;;;;;;4.33;2.20;;;;;;;;;;5093131;28;20423;-77
2022/06/01 08:08:04;;;;;;;11.90;2.60;;;;;;;;;;5093252;28;20417;-76
2022/06/01 08:10:30;;;;;;;4.00;2.80;;;;;;;;;;5080377;28;20420;-75
2022/06/01 08:13:08;;;;;;;3.53;2.00;;;;;;;;;;5072578;28;20867;-75
2022/06/01 08:15:39;;;;;;;8.73;3.23;;;;;;;;;;5073021;28;20446;-77
2022/06/01 08:18:05;;;;;;;8.13;2.20;;;;;;;;;;5072896;28;20437;-76
2022/06/01 08:20:32;;;;;;;2.87;2.60;;;;;;;;;;5073128;28;20382;-76
2022/06/01 08:22:58;;;;;;;27.33;3.40;;;;;;;;;;5072661;28;20396;-76
2022/06/01 08:25:25;;;;;;;4.10;2.50;;;;;;;;;;5072882;28;20428;-76
2022/06/01 08:27:51;;;;;;;3.30;2.00;;;;;;;;;;5072643;28;20446;-76
2022/06/01 08:30:20;;;;;;;4.83;1.80;;;;;;;;;;5073055;28;20449;-75
2022/06/01 08:32:46;;;;;;;7.30;3.20;;;;;;;;;;5072506;28;20481;-75
2022/06/01 08:35:13;;;;;;;6.20;1.60;;;;;;;;;;5071982;28;20405;-79
2022/06/01 08:37:39;;;;;;;6.03;2.50;;;;;;;;;;5072640;28;20381;-77
2022/06/01 08:40:06;;;;;;;4.37;2.40;;;;;;;;;;5072526;28;20422;-76
2022/06/01 08:42:32;;;;;;;6.90;2.30;;;;;;;;;;5080650;28;20739;-77
2022/06/01 08:45:02;;;;;;;2.40;1.80;;;;;;;;;;5081003;28;21005;-75
2022/06/01 08:47:35;;;;;;;2.60;1.53;;;;;;;;;;5081476;28;20682;-77
2022/06/01 08:50:05;;;;;;;4.13;1.90;;;;;;;;;;5073084;28;20418;-78
2022/06/01 08:52:31;;;;;;;2.90;1.77;;;;;;;;;;5072622;28;20386;-77
2022/06/01 08:54:57;;;;;;;2.80;1.50;;;;;;;;;;5070846;28;20774;-76
2022/06/01 08:57:39;;;;;;;7.53;2.10;;;;;;;;;;5072517;28;20389;-77
2022/06/01 09:00:05;;;;;;;5.50;2.10;;;;;;;;;;5072489;28;20419;-75
2022/06/01 09:02:31;;;;;;;6.23;2.23;;;;;;;;;;5072431;28;20491;-77
2022/06/01 09:05:06;;;;;;;4.47;2.00;;;;;;;;;;5072098;28;20982;-74
2022/06/01 09:07:43;;;;;;;3.10;1.73;;;;;;;;;;5072439;28;20473;-76
2022/06/01 09:10:31;;;;;;;4.63;2.20;;;;;;;;;;5072469;28;20491;-76
2022/06/01 09:13:03;;;;;;;2.20;1.70;;;;;;;;;;5072375;28;20399;-78
2022/06/01 09:15:33;;;;;;;7.00;2.20;;;;;;;;;;5072400;28;20427;-75
2022/06/01 09:18:01;;;;;;;5.20;1.90;;;;;;;;;;5072219;28;20455;-75
2022/06/01 09:23:14;;;;;;;3.40;1.73;;;;;;;;;;5072331;28;20732;-76
2022/06/01 09:25:50;;;;;;;2.20;2.00;;;;;;;;;;5071101;28;20423;-76
2022/06/01 09:28:20;;;;;;;6.57;1.87;;;;;;;;;;5072010;28;20413;-76
2022/06/01 09:30:52;;;;;;;8.20;2.00;;;;;;;;;;5072157;28;20926;-75
2022/06/01 09:33:24;;;;;;;1.50;1.40;;;;;;;;;;5071868;28;20403;-76
2022/06/01 09:36:09;;;;;;;3.10;2.20;;;;;;;;;;5072194;28;20459;-78
2022/06/01 09:38:49;;;;;;;2.33;1.40;;;;;;;;;;5071961;28;20426;-75
2022/06/01 09:41:24;;;;;;;3.83;1.73;;;;;;;;;;5072306;28;20403;-74
2022/06/01 09:44:01;;;;;;;3.23;1.70;;;;;;;;;;5071813;28;20431;-75
2022/06/01 09:46:37;;;;;;;4.93;2.00;;;;;;;;;;5074018;28;20426;-74
2022/06/01 09:49:21;;;;;;;2.70;1.60;;;;;;;;;;5075911;28;20494;-76
2022/06/01 09:51:48;;;;;;;2.90;1.20;;;;;;;;;;5075952;28;20465;-74
2022/06/01 09:54:15;;;;;;;4.20;1.53;;;;;;;;;;5075692;28;20393;-75
2022/06/01 09:56:45;;;;;;;2.63;1.20;;;;;;;;;;5075687;28;20429;-76
2022/06/01 10:08:13;;;;;;;2.50;1.30;;;;;;;;;;5084913;28;20904;-76
2022/06/01 10:10:39;;;;;;;3.53;1.73;;;;;;;;;;5084078;28;20384;-74
2022/06/01 10:13:06;;;;;;;1.93;1.27;;;;;;;;;;5075155;28;20408;-76
2022/06/01 10:15:42;;;;;;;2.90;1.83;;;;;;;;;;5075338;28;20426;-75
2022/06/01 10:18:11;;;;;;;2.13;1.23;;;;;;;;;;5075138;28;20537;-76
2022/06/01 10:20:40;;;;;;;1.80;1.23;;;;;;;;;;5074978;28;20404;-75
2022/06/01 10:23:11;;;;;;;3.50;1.50;;;;;;;;;;5074971;28;20399;-75
2022/06/01 10:25:46;;;;;;;3.80;1.13;;;;;;;;;;5075167;28;20408;-75
2022/06/01 10:28:17;;;;;;;3.83;1.57;;;;;;;;;;5075213;28;20411;-76
2022/06/01 10:30:53;;;;;;;2.33;1.20;;;;;;;;;;5074763;28;20408;-77
2022/06/01 10:33:23;;;;;;;2.83;1.50;;;;;;;;;;5074796;28;20394;-77
2022/06/01 10:35:56;;;;;;;2.70;1.30;;;;;;;;;;5074872;28;20431;-75
2022/06/01 10:38:25;;;;;;;3.70;1.93;;;;;;;;;;5074881;28;20422;-75
2022/06/01 10:40:59;;;;;;;3.30;1.50;;;;;;;;;;5074686;28;20378;-75
2022/06/01 10:43:34;;;;;;;3.60;1.97;;;;;;;;;;5073362;28;20387;-73
2022/06/01 10:46:05;;;;;;;2.40;1.40;;;;;;;;;;5074489;28;20488;-76
2022/06/01 10:48:34;;;;;;;2.60;1.67;;;;;;;;;;5074890;28;20404;-76
2022/06/01 10:51:05;;;;;;;1.80;1.30;;;;;;;;;;5074818;28;20493;-75
2022/06/01 10:53:39;;;;;;;5.30;1.40;;;;;;;;;;5074515;28;20442;-74
2022/06/01 10:56:05;;;;;;;2.90;1.27;;;;;;;;;;5074408;28;20513;-75
2022/06/01 10:58:31;;;;;;;2.17;1.10;;;;;;;;;;5074242;28;20442;-74
2022/06/01 11:01:15;;;;;;;1.50;1.20;;;;;;;;;;5074080;28;20435;-75
2022/06/01 11:03:40;;;;;;;6.80;1.43;;;;;;;;;;5074098;28;20381;-75
2022/06/01 11:06:12;;;;;;;4.03;1.00;;;;;;;;;;5074091;28;20502;-74
2022/06/01 11:08:57;;;;;;;3.00;1.20;;;;;;;;;;5074258;28;20413;-74
2022/06/01 11:11:28;;;;;;;6.60;1.47;;;;;;;;;;5074191;28;20382;-77
2022/06/01 11:13:57;;;;;;;4.23;2.93;;;;;;;;;;5073932;28;20378;-76
2022/06/01 11:16:32;;;;;;;5.77;3.20;;;;;;;;;;5074165;28;20777;-77
2022/06/01 11:19:02;;;;;;;2.60;1.10;;;;;;;;;;5074230;28;20527;-74
2022/06/01 11:21:44;;;;;;;2.83;1.50;;;;;;;;;;5074077;28;20423;-74
2022/06/01 11:24:18;;;;;;;4.23;1.27;;;;;;;;;;5073456;28;20493;-76
2022/06/01 11:26:47;;;;;;;3.53;1.40;;;;;;;;;;5072671;28;20393;-76
2022/06/01 11:29:25;;;;;;;3.87;1.73;;;;;;;;;;5073790;28;20473;-77
2022/06/01 11:31:52;;;;;;;6.73;1.80;;;;;;;;;;5073665;28;20518;-76
2022/06/01 11:34:20;;;;;;;1.77;1.00;;;;;;;;;;5073285;28;20444;-74
2022/06/01 11:36:52;;;;;;;5.17;1.40;;;;;;;;;;5074121;28;20911;-75
2022/06/01 11:39:32;;;;;;;3.73;1.37;;;;;;;;;;5073559;28;20459;-74
2022/06/01 11:42:00;;;;;;;7.80;1.30;;;;;;;;;;5073494;28;20461;-75
2022/06/01 11:44:29;;;;;;;3.57;1.80;;;;;;;;;;5071929;28;20577;-74
2022/06/01 11:47:04;;;;;;;2.73;1.53;;;;;;;;;;5073721;28;20408;-76
2022/06/01 11:49:38;;;;;;;2.17;1.20;;;;;;;;;;5072236;28;20415;-74
2022/06/01 11:52:16;;;;;;;1.93;1.10;;;;;;;;;;5073271;28;20469;-75
2022/06/01 11:54:42;;;;;;;1.93;1.20;;;;;;;;;;5073073;28;20459;-74
2022/06/01 11:57:25;;;;;;;3.30;1.13;;;;;;;;;;5072057;28;20443;-74
2022/06/01 12:00:04;;;;;;;2.97;1.70;;;;;;;;;;5073248;28;20458;-75
2022/06/01 12:02:44;;;;;;;3.27;1.40;;;;;;;;;;5073249;28;20417;-76
2022/06/01 12:05:12;;;;;;;2.80;1.20;;;;;;;;;;5073022;28;20898;-77
2022/06/01 12:07:49;;;;;;;2.27;1.10;;;;;;;;;;5073024;28;20908;-74
2022/06/01 12:10:18;;;;;;;3.43;1.50;;;;;;;;;;5072720;28;20414;-74
2022/06/01 12:12:47;;;;;;;3.23;1.30;;;;;;;;;;5073210;28;20495;-75
2022/06/01 12:15:26;;;;;;;2.37;1.13;;;;;;;;;;5072832;28;20455;-76
2022/06/01 12:18:12;;;;;;;2.27;1.60;;;;;;;;;;5072983;28;20378;-74
2022/06/01 12:20:38;;;;;;;3.90;2.17;;;;;;;;;;5065764;28;20496;-74
2022/06/01 12:28:48;;;;;;;2.10;1.90;;;;;;;;;;5092310;28;20425;-74
2022/06/01 12:31:14;;;;;;;3.70;1.50;;;;;;;;;;5092901;28;20431;-75
2022/06/01 12:33:58;;;;;;;2.77;1.53;;;;;;;;;;5091152;28;20393;-75
2022/06/01 12:36:25;;;;;;;4.70;2.17;;;;;;;;;;5081453;28;20827;-76
2022/06/01 12:38:51;;;;;;;1.70;0.90;;;;;;;;;;5072628;28;20574;-75
2022/06/01 12:41:19;;;;;;;1.53;1.17;;;;;;;;;;5072697;28;20415;-75
2022/06/01 12:43:50;;;;;;;1.87;1.00;;;;;;;;;;5091483;28;20423;-74
2022/06/01 12:46:27;;;;;;;2.40;0.90;;;;;;;;;;5092806;28;20486;-76
2022/06/01 12:49:13;;;;;;;3.77;1.47;;;;;;;;;;5093002;28;20414;-76
2022/06/01 12:51:41;;;;;;;3.33;1.70;;;;;;;;;;5076531;28;20457;-77
2022/06/01 12:54:07;;;;;;;2.00;1.10;;;;;;;;;;5072049;28;20439;-74
2022/06/01 12:56:33;;;;;;;3.70;1.37;;;;;;;;;;5071503;28;20912;-76
2022/06/01 12:58:59;;;;;;;3.20;1.43;;;;;;;;;;5072521;28;20434;-74
2022/06/01 13:01:30;;;;;;;3.13;1.33;;;;;;;;;;5085876;28;20419;-74
2022/06/01 13:03:58;;;;;;;5.60;1.60;;;;;;;;;;5091999;28;20484;-74
2022/06/01 13:06:25;;;;;;;1.63;1.37;;;;;;;;;;5092773;28;20399;-77
2022/06/01 13:08:58;;;;;;;4.17;1.73;;;;;;;;;;5092855;28;20770;-75
2022/06/01 13:11:32;;;;;;;3.43;1.50;;;;;;;;;;5091655;28;20414;-72
2022/06/01 13:14:03;;;;;;;3.03;1.50;;;;;;;;;;5092353;28;20385;-74
2022/06/01 13:16:33;;;;;;;2.47;1.30;;;;;;;;;;5083708;28;20529;-73
2022/06/01 13:19:14;;;;;;;3.90;1.20;;;;;;;;;;5081538;28;20479;-73
2022/06/01 13:21:40;;;;;;;4.77;1.17;;;;;;;;;;5076184;28;20411;-73
2022/06/01 13:24:07;;;;;;;1.77;1.03;;;;;;;;;;5075836;28;20423;-73
2022/06/01 13:26:38;;;;;;;2.67;1.20;;;;;;;;;;5076123;28;20416;-73
2022/06/01 13:29:16;;;;;;;4.57;1.50;;;;;;;;;;5077229;28;20416;-73
2022/06/01 13:31:43;;;;;;;2.50;1.17;;;;;;;;;;5074748;28;20931;-74
2022/06/01 13:34:19;;;;;;;2.07;1.13;;;;;;;;;;5075601;28;20427;-74
2022/06/01 13:36:47;;;;;;;3.40;1.20;;;;;;;;;;5076284;28;20390;-74
2022/06/01 13:39:14;;;;;;;1.73;1.10;;;;;;;;;;5095900;28;20464;-74
2022/06/01 13:41:54;;;;;;;2.03;1.20;;;;;;;;;;5096233;28;20439;-73
2022/06/01 13:44:39;;;;;;;1.70;0.97;;;;;;;;;;5095679;28;20397;-73
2022/06/01 13:47:05;;;;;;;1.83;1.20;;;;;;;;;;5095713;28;20913;-73
2022/06/01 13:49:31;;;;;;;4.00;1.83;;;;;;;;;;5096061;28;20980;-74
2022/06/01 13:52:01;;;;;;;1.60;1.10;;;;;;;;;;5095895;28;20540;-73
2022/06/01 13:54:27;;;;;;;3.57;1.10;;;;;;;;;;5095608;28;20821;-73
2022/06/01 13:57:14;;;;;;;5.40;1.57;;;;;;;;;;5094160;28;20461;-73
2022/06/01 13:59:49;;;;;;;2.53;1.43;;;;;;;;;;5075451;28;20468;-74
2022/06/01 14:02:19;;;;;;;1.70;1.47;;;;;;;;;;5075580;28;20400;-73
2022/06/01 14:04:48;;;;;;;2.50;1.67;;;;;;;;;;5075065;28;20834;-73
2022/06/01 14:07:15;;;;;;;3.93;2.00;;;;;;;;;;5075499;28;20435;-73
2022/06/01 14:09:45;;;;;;;2.90;2.70;;;;;;;;;;5075430;28;20374;-73
2022/06/01 14:12:11;;;;;;;3.23;2.87;;;;;;;;;;5075471;28;20402;-72
2022/06/01 14:14:40;;;;;;;8.10;3.30;;;;;;;;;;5075166;28;20398;-76
2022/06/01 14:17:10;;;;;;;8.30;3.80;;;;;;;;;;5091759;28;20398;-75
2022/06/01 14:19:37;;;;;;;3.80;3.43;;;;;;;;;;5079609;28;20455;-75
2022/06/01 14:22:04;;;;;;;4.27;3.87;;;;;;;;;;5075169;28;20448;-75
2022/06/01 14:29:59;;;;;;;4.60;3.83;;;;;;;;;;5075452;28;20428;-76
2022/06/01 14:32:25;;;;;;;4.47;2.97;;;;;;;;;;5074018;28;20406;-75
2022/06/01 14:34:51;;;;;;;4.07;2.70;;;;;;;;;;5076732;28;20447;-77
2022/06/01 14:37:17;;;;;;;3.23;2.93;;;;;;;;;;5074933;28;20444;-75
2022/06/01 14:39:43;;;;;;;5.70;3.13;;;;;;;;;;5074848;28;20476;-75
2022/06/01 14:42:09;;;;;;;5.10;2.63;;;;;;;;;;5079910;28;20422;-76
2022/06/01 14:44:35;;;;;;;2.43;2.23;;;;;;;;;;5094385;28;20434;-75
2022/06/01 14:47:01;;;;;;;5.23;2.53;;;;;;;;;;5094889;28;20393;-74
2022/06/01 14:49:28;;;;;;;2.60;2.30;;;;;;;;;;5095011;28;20400;-73
2022/06/01 14:51:55;;;;;;;2.30;2.07;;;;;;;;;;5091299;28;20451;-75
2022/06/01 14:54:23;;;;;;;5.40;2.00;;;;;;;;;;5074143;28;20427;-76
2022/06/01 14:56:49;;;;;;;5.87;2.67;;;;;;;;;;5090716;28;20492;-76
2022/06/01 14:59:15;;;;;;;2.83;1.70;;;;;;;;;;5094647;28;20428;-74
2022/06/01 15:01:54;;;;;;;3.00;1.70;;;;;;;;;;5093337;28;20887;-76
2022/06/01 15:04:22;;;;;;;2.20;2.00;;;;;;;;;;5094020;28;20442;-75
2022/06/01 15:06:48;;;;;;;4.20;2.20;;;;;;;;;;5093507;28;20476;-76
2022/06/01 15:09:15;;;;;;;2.37;1.87;;;;;;;;;;5081889;28;20561;-73
2022/06/01 15:11:42;;;;;;;2.10;1.60;;;;;;;;;;5074572;28;20959;-75
2022/06/01 15:14:10;;;;;;;5.57;2.17;;;;;;;;;;5072783;28;20432;-76
2022/06/01 15:16:37;;;;;;;1.93;1.83;;;;;;;;;;5074211;28;20406;-77
2022/06/01 15:19:03;;;;;;;4.30;2.53;;;;;;;;;;5074006;28;20885;-77
2022/06/01 15:21:29;;;;;;;4.30;2.83;;;;;;;;;;5085801;28;20423;-76
2022/06/01 15:23:56;;;;;;;5.57;3.00;;;;;;;;;;5093897;28;20403;-75
2022/06/01 15:26:23;;;;;;;4.80;2.90;;;;;;;;;;5094345;28;20378;-76
2022/06/01 15:28:49;;;;;;;4.70;2.37;;;;;;;;;;5093967;28;20498;-77
2022/06/01 15:39:33;;;;;;;3.90;2.90;;;;;;;;;;5073768;28;20474;-75